This is the latest recevied weather packets stored in our database for station/object Ad4UU. If no packets are shown the sender has not sent any weather packets the latest 10 day(s).
| Time | Temp. | Humidity | Pressure | Rain* | Wind** | Luminosity | Snow |
|---|---|---|---|---|---|---|---|
| 1777587348 | 27.22° C | 72% | 1010.9 hPa | 0 mm | - | - | - |
| 1777587031 | 27.22° C | 71% | 1010.9 hPa | 0 mm | - | - | - |
| 1777584036 | 27.78° C | 71% | 1011.3 hPa | 0 mm | - | - | - |
| 1777583431 | 28.33° C | 69% | 1011.4 hPa | 0 mm | - | - | - |
| 1777583131 | 27.78° C | 70% | 1011.5 hPa | 0 mm | - | - | - |
| 1777581047 | 28.89° C | 63% | 1011.4 hPa | 0 mm | - | - | - |
| 1777580731 | 29.44° C | 63% | 1011.4 hPa | 0 mm | - | - | - |
| 1777579830 | 30° C | 62% | 1011.6 hPa | 0 mm | - | - | - |
| 1777579531 | 30° C | 64% | 1011.6 hPa | 0 mm | - | - | - |
| 1777579252 | 30° C | 62% | 1011.5 hPa | 0 mm | - | - | - |
| 1777578349 | 29.44° C | 63% | 1011.6 hPa | 0 mm | - | - | - |
| 1777578030 | 30° C | 62% | 1011.7 hPa | 0 mm | - | - | - |
| 1777577730 | 30° C | 62% | 1011.6 hPa | 0 mm | - | - | - |
| 1777574431 | 29.44° C | 64% | 1011.9 hPa | 0 mm | - | - | - |
| 1777571166 | 30° C | 63% | 1012.5 hPa | 0 mm | - | - | - |
| 1777569351 | 30° C | 62% | 1012.7 hPa | 0 mm | - | - | - |
| 1777567831 | 29.44° C | 65% | 1013.2 hPa | 0 mm | - | - | - |
| 1777566673 | 28.89° C | 64% | 1013.5 hPa | 0 mm | - | - | - |
| 1777564849 | 28.33° C | 66% | 1013.3 hPa | 0 mm | - | - | - |
| 1777564530 | 28.33° C | 67% | 1013.2 hPa | 0 mm | - | - | - |
| 1777562733 | 27.78° C | 66% | 1013.5 hPa | 0 mm | - | - | - |
| 1777562431 | 28.33° C | 68% | 1013.5 hPa | 0 mm | - | - | - |
| 1777562158 | 28.33° C | 68% | 1013.5 hPa | 0 mm | - | - | - |
| 1777561253 | 27.78° C | 69% | 1013.5 hPa | 0 mm | - | - | - |
| 1777560359 | 27.22° C | 72% | 1013.4 hPa | 0 mm | - | - | - |
* Rain latest hour (hover to see other rain measurements)
** Current wind speed in m/s (hover to see current wind gust speed)